createdAt,value
2022-07-28T00:04:18.796Z,99619.20
2022-07-28T00:09:21.625Z,99627.95
2022-07-28T00:14:24.622Z,99626.73
2022-07-28T00:19:27.428Z,99620.34
2022-07-28T00:24:31.941Z,99623.12
2022-07-28T00:29:50.068Z,99625.41
2022-07-28T00:34:53.880Z,99625.02
2022-07-28T00:39:57.737Z,99623.23
2022-07-28T00:45:00.626Z,99621.66
2022-07-28T00:50:05.933Z,99634.77
2022-07-28T00:55:09.417Z,99642.44
2022-07-28T01:00:12.597Z,99635.50
2022-07-28T01:05:16.174Z,99637.33
2022-07-28T01:10:32.904Z,99638.86
2022-07-28T01:15:54.590Z,99641.20
2022-07-28T01:21:12.756Z,99640.36
2022-07-28T01:26:39.935Z,99639.83
2022-07-28T01:31:51.716Z,99642.48
2022-07-28T01:37:04.712Z,99644.11
2022-07-28T01:42:09.153Z,99646.20
2022-07-28T01:47:13.367Z,99642.36
2022-07-28T01:52:17.686Z,99636.43
2022-07-28T01:57:21.647Z,99640.65
2022-07-28T02:02:25.159Z,99640.31
2022-07-28T02:07:29.002Z,99643.87
2022-07-28T02:12:32.191Z,99638.67
2022-07-28T02:17:35.590Z,99641.27
2022-07-28T02:22:41.093Z,99644.92
2022-07-28T02:28:01.406Z,99644.44
2022-07-28T02:33:11.355Z,99649.83
2022-07-28T02:38:20.488Z,99656.02
2022-07-28T02:43:49.671Z,99659.30
2022-07-28T02:48:56.958Z,99666.36
2022-07-28T02:54:00.214Z,99671.86
2022-07-28T02:59:03.937Z,99678.27
2022-07-28T03:04:06.955Z,99679.21
2022-07-28T03:09:09.945Z,99680.35
2022-07-28T03:14:12.954Z,99689.92
2022-07-28T03:19:16.095Z,99699.35
2022-07-28T03:24:20.471Z,99709.26
2022-07-28T03:29:24.721Z,99713.79
2022-07-28T03:34:28.829Z,99714.36
2022-07-28T03:39:36.163Z,99718.53
2022-07-28T03:44:39.856Z,99719.25
2022-07-28T03:49:46.370Z,99715.60
2022-07-28T03:54:49.184Z,99716.33
2022-07-28T03:59:52.447Z,99724.40
2022-07-28T04:04:55.247Z,99727.11
2022-07-28T04:09:58.136Z,99729.50
2022-07-28T04:15:00.946Z,99735.50
2022-07-28T04:20:04.059Z,99743.60
2022-07-28T04:25:07.485Z,99749.91
2022-07-28T04:30:13.449Z,99753.84
2022-07-28T04:35:18.194Z,99760.36
2022-07-28T04:40:21.293Z,99768.71
2022-07-28T04:45:24.210Z,99772.55
2022-07-28T04:50:27.442Z,99765.73
2022-07-28T04:55:30.364Z,99770.72
2022-07-28T05:00:35.429Z,99769.20
2022-07-28T05:05:38.256Z,99773.87
2022-07-28T05:10:41.113Z,99773.71
2022-07-28T05:15:43.964Z,99775.85
2022-07-28T05:20:46.764Z,99776.95
2022-07-28T05:25:49.704Z,99773.10
2022-07-28T05:30:53.025Z,99775.86
2022-07-28T05:35:59.894Z,99777.79
2022-07-28T05:41:02.771Z,99784.03
2022-07-28T05:46:05.821Z,99788.96
2022-07-28T05:51:08.647Z,99788.53
2022-07-28T05:56:11.441Z,99794.80
2022-07-28T06:01:14.386Z,99793.48
2022-07-28T06:06:17.691Z,99797.09
2022-07-28T06:11:22.859Z,99800.09
2022-07-28T06:16:26.171Z,99803.61
2022-07-28T06:21:29.089Z,99809.88
2022-07-28T06:26:31.931Z,99811.56
2022-07-28T06:31:35.974Z,99813.91
2022-07-28T06:36:39.090Z,99812.43
2022-07-28T06:41:44.586Z,99816.55
2022-07-28T06:46:47.447Z,99818.91
2022-07-28T06:51:50.322Z,99821.83
2022-07-28T06:56:53.978Z,99823.58
2022-07-28T07:02:01.902Z,99827.52
2022-07-28T07:07:04.824Z,99832.59
2022-07-28T07:12:19.884Z,99838.05
2022-07-28T07:17:22.718Z,99836.11
2022-07-28T07:22:25.598Z,99835.49
2022-07-28T07:27:28.559Z,99832.60
2022-07-28T07:32:31.694Z,99839.89
2022-07-28T07:37:34.794Z,99832.89
2022-07-28T07:42:37.711Z,99831.79
2022-07-28T07:47:41.250Z,99837.78
2022-07-28T07:52:44.106Z,99842.25
2022-07-28T07:57:46.993Z,99840.88
2022-07-28T08:02:49.973Z,99843.89
2022-07-28T08:07:53.260Z,99839.00
2022-07-28T08:12:56.177Z,99848.27
2022-07-28T08:17:59.103Z,99848.69
2022-07-28T08:23:02.024Z,99847.52
2022-07-28T08:28:05.053Z,99846.20
2022-07-28T08:33:08.193Z,99841.17
2022-07-28T08:38:12.896Z,99846.14
2022-07-28T08:43:33.217Z,99849.42
2022-07-28T08:48:37.992Z,99845.62
2022-07-28T08:53:41.751Z,99847.30
2022-07-28T08:58:44.705Z,99844.77
2022-07-28T09:03:47.901Z,99842.75
2022-07-28T09:08:50.763Z,99840.70
2022-07-28T09:13:54.131Z,99838.23
2022-07-28T09:18:57.196Z,99840.42
2022-07-28T09:24:01.655Z,99845.63
2022-07-28T09:29:04.515Z,99850.83
2022-07-28T09:34:07.471Z,99851.02
2022-07-28T09:39:10.731Z,99856.31
2022-07-28T09:44:20.431Z,99842.94
2022-07-28T09:49:41.584Z,99839.46
2022-07-28T09:55:03.867Z,99844.79
2022-07-28T10:00:11.314Z,99840.04
2022-07-28T10:05:14.265Z,99839.52
2022-07-28T10:10:21.822Z,99841.30
2022-07-28T10:15:50.769Z,99840.14
2022-07-28T10:20:54.131Z,99836.88
2022-07-28T10:25:58.609Z,99832.52
2022-07-28T10:31:03.404Z,99834.27
2022-07-28T10:36:07.071Z,99838.58
2022-07-28T10:41:12.347Z,99836.72
2022-07-28T10:46:16.979Z,99826.75
2022-07-28T10:51:21.562Z,99826.13
2022-07-28T10:56:33.733Z,99820.65
2022-07-28T11:01:55.466Z,99816.12
2022-07-28T11:07:15.176Z,99815.55
2022-07-28T11:12:45.195Z,99817.95
2022-07-28T11:18:09.257Z,99809.73
2022-07-28T11:23:47.708Z,99802.40
2022-07-28T11:29:07.190Z,99802.09
2022-07-28T11:34:14.876Z,99800.84
2022-07-28T11:39:25.819Z,99794.14
2022-07-28T11:44:30.577Z,99797.41
2022-07-28T11:49:33.498Z,99800.72
2022-07-28T11:54:37.412Z,99794.14
2022-07-28T11:59:49.758Z,99785.60
2022-07-28T12:04:58.415Z,99784.70
2022-07-28T12:10:02.127Z,99782.85
2022-07-28T12:15:07.342Z,99780.77
2022-07-28T12:20:14.139Z,99778.88
2022-07-28T12:25:19.894Z,99779.55
2022-07-28T12:30:28.602Z,99785.35
2022-07-28T12:35:31.988Z,99776.63
2022-07-28T12:40:35.200Z,99783.65
2022-07-28T12:45:48.518Z,99776.16
2022-07-28T12:50:51.529Z,99773.65
2022-07-28T12:56:01.442Z,99776.50
2022-07-28T13:01:09.013Z,99777.44
2022-07-28T13:06:13.506Z,99775.71
2022-07-28T13:16:40.134Z,99779.02
2022-07-28T13:21:57.583Z,99773.80
2022-07-28T13:27:03.511Z,99779.08
2022-07-28T13:32:06.958Z,99784.89
2022-07-28T13:37:10.074Z,99786.55
2022-07-28T13:42:13.216Z,99787.31
2022-07-28T13:47:16.534Z,99781.48
2022-07-28T13:52:26.413Z,99777.05
2022-07-28T13:57:36.859Z,99778.59
2022-07-28T14:02:44.184Z,99778.59
2022-07-28T14:07:49.325Z,99777.21
2022-07-28T14:12:52.389Z,99779.11
2022-07-28T14:17:55.271Z,99779.48
2022-07-28T14:22:58.548Z,99777.82
2022-07-28T14:28:01.358Z,99777.45
2022-07-28T14:33:06.510Z,99778.62
2022-07-28T14:43:33.211Z,99770.36
2022-07-28T14:48:36.056Z,99769.54
2022-07-28T14:53:43.355Z,99770.77
2022-07-28T14:58:53.723Z,99775.19
2022-07-28T15:04:00.463Z,99779.23
2022-07-28T15:09:04.414Z,99770.69
2022-07-28T15:14:12.230Z,99772.55
2022-07-28T15:19:19.010Z,99764.16
2022-07-28T15:24:23.382Z,99766.00
2022-07-28T15:29:27.293Z,99763.60
2022-07-28T15:34:39.591Z,99762.34
2022-07-28T15:39:45.191Z,99753.25
2022-07-28T15:44:49.504Z,99753.03
2022-07-28T15:49:52.317Z,99757.99
2022-07-28T15:54:56.698Z,99759.58
2022-07-28T15:59:59.482Z,99759.23
2022-07-28T16:05:02.416Z,99754.90
2022-07-28T16:10:05.544Z,99761.63
2022-07-28T16:15:09.248Z,99764.62
2022-07-28T16:20:18.235Z,99763.88
2022-07-28T16:25:32.130Z,99763.57
2022-07-28T16:30:35.888Z,99765.05
2022-07-28T16:35:38.741Z,99769.46
2022-07-28T16:40:41.888Z,99773.29
2022-07-28T16:45:44.684Z,99773.36
2022-07-28T16:50:47.641Z,99768.58
2022-07-28T16:55:50.573Z,99767.77
2022-07-28T17:00:53.503Z,99770.55
2022-07-28T17:05:56.428Z,99772.73
2022-07-28T17:10:59.328Z,99772.45
2022-07-28T17:16:03.938Z,99773.01
2022-07-28T17:21:06.864Z,99771.33
2022-07-28T17:27:30.693Z,99774.48
2022-07-28T17:31:33.839Z,99783.25
2022-07-28T17:36:38.983Z,99786.60
2022-07-28T17:41:44.960Z,99780.27
2022-07-28T17:46:49.390Z,99785.16
2022-07-28T17:51:52.294Z,99784.04
2022-07-28T17:56:56.868Z,99788.64
2022-07-28T18:01:59.776Z,99789.20
2022-07-28T18:07:02.621Z,99794.08
2022-07-28T18:12:05.691Z,99794.11
2022-07-28T18:17:08.513Z,99800.02
2022-07-28T18:22:11.390Z,99799.63
2022-07-28T18:27:14.212Z,99806.02
2022-07-28T18:32:17.551Z,99806.73
2022-07-28T18:37:20.348Z,99815.95
2022-07-28T18:42:23.141Z,99825.21
2022-07-28T18:47:28.199Z,99826.20
2022-07-28T18:52:31.086Z,99827.86
2022-07-28T18:57:34.781Z,99835.92
2022-07-28T19:02:39.290Z,99839.46
2022-07-28T19:07:45.285Z,99839.98
2022-07-28T19:12:49.051Z,99838.97
2022-07-28T19:18:11.552Z,99840.74
2022-07-28T19:23:14.792Z,99844.15
2022-07-28T19:28:17.733Z,99843.95
2022-07-28T19:33:21.967Z,99843.48
2022-07-28T19:38:27.272Z,99842.59
2022-07-28T19:43:32.331Z,99850.80
2022-07-28T19:48:35.301Z,99847.83
2022-07-28T19:53:38.631Z,99850.30
2022-07-28T19:58:41.470Z,99852.55
2022-07-28T20:04:01.793Z,99856.67
2022-07-28T20:09:07.668Z,99857.03
2022-07-28T20:14:10.768Z,99856.63
2022-07-28T20:19:13.779Z,99864.27
2022-07-28T20:24:19.430Z,99865.38
2022-07-28T20:29:22.417Z,99868.49
2022-07-28T20:34:26.950Z,99867.41
2022-07-28T20:39:44.565Z,99875.54
2022-07-28T20:44:48.309Z,99875.66
2022-07-28T20:49:51.129Z,99878.56
2022-07-28T20:54:55.000Z,99882.57
2022-07-28T20:59:58.049Z,99886.59
2022-07-28T21:05:01.250Z,99890.40
2022-07-28T21:10:05.726Z,99893.05
2022-07-28T21:15:09.160Z,99899.98
2022-07-28T21:20:12.262Z,99896.02
2022-07-28T21:25:15.189Z,99901.95
2022-07-28T21:30:18.000Z,99906.52
2022-07-28T21:35:20.823Z,99911.20
2022-07-28T21:40:24.273Z,99912.77
2022-07-28T21:45:27.267Z,99917.23
2022-07-28T21:50:30.078Z,99916.96
2022-07-28T21:55:32.927Z,99920.81
2022-07-28T22:00:35.762Z,99925.88
2022-07-28T22:05:38.622Z,99928.73
2022-07-28T22:10:41.457Z,99926.40
2022-07-28T22:15:45.280Z,99927.41
2022-07-28T22:20:48.544Z,99927.03
2022-07-28T22:25:51.370Z,99937.98
2022-07-28T22:30:55.570Z,99934.08
2022-07-28T22:35:58.412Z,99932.39
2022-07-28T22:41:01.241Z,99934.63
2022-07-28T22:46:04.159Z,99935.52
2022-07-28T22:51:11.692Z,99936.09
2022-07-28T22:57:11.246Z,99939.06
2022-07-28T23:02:14.644Z,99938.66
2022-07-28T23:07:18.088Z,99940.52
2022-07-28T23:12:21.298Z,99946.26
2022-07-28T23:17:24.175Z,99953.86
2022-07-28T23:22:27.980Z,99948.90
2022-07-28T23:27:30.852Z,99944.64
2022-07-28T23:32:33.723Z,99940.44
2022-07-28T23:37:36.830Z,99940.89
2022-07-28T23:42:39.696Z,99935.16
2022-07-28T23:47:42.545Z,99932.97
2022-07-28T23:52:45.417Z,99927.30
2022-07-28T23:57:48.369Z,99928.56
